Time;durP1;ratioP1;P1;durP2;ratioP2;P2;SDS_P1;SDS_P2;PMS_P1;PMS_P2;Temp;Humidity;BMP_temperature;BMP_pressure;BME280_temperature;BME280_humidity;BME280_pressure;Samples;Min_cycle;Max_cycle;Signal;HPM_P1;HPM_P2
2022/04/13 05:21:23;;;;;;;0.20;0.20;;;9.10;99.90;;;;;;5442950;23;23217;-76
2022/04/13 05:23:49;;;;;;;0.30;0.30;;;9.20;99.90;;;;;;4960877;28;20477;-77
2022/04/13 05:26:18;;;;;;;0.20;0.20;;;9.20;99.90;;;;;;4962363;28;20440;-78
2022/04/13 05:28:45;;;;;;;0.20;0.20;;;9.20;99.90;;;;;;4969478;28;20590;-77
2022/04/13 05:31:11;;;;;;;0.30;0.30;;;9.20;99.90;;;;;;4962398;28;20437;-77
2022/04/13 05:33:36;;;;;;;0.30;0.30;;;9.20;99.90;;;;;;4971027;28;20417;-76
2022/04/13 05:36:03;;;;;;;0.30;0.30;;;9.20;99.90;;;;;;4965812;28;20703;-77
2022/04/13 05:38:29;;;;;;;0.20;0.20;;;9.30;99.90;;;;;;4948996;28;20221;-77
2022/04/13 05:40:54;;;;;;;0.30;0.30;;;9.30;99.90;;;;;;4969000;28;20508;-77
2022/04/13 05:43:20;;;;;;;0.30;0.30;;;9.30;99.90;;;;;;4974947;28;20692;-77
2022/04/13 05:45:45;;;;;;;0.20;0.20;;;9.30;99.90;;;;;;4977685;28;20669;-77
2022/04/13 05:48:11;;;;;;;0.20;0.20;;;9.40;99.90;;;;;;4968998;28;20288;-76
2022/04/13 05:50:36;;;;;;;0.20;0.20;;;9.40;99.90;;;;;;4967889;28;20560;-77
2022/04/13 05:53:02;;;;;;;0.30;0.30;;;9.40;99.90;;;;;;4965692;28;20186;-77
2022/04/13 05:55:28;;;;;;;0.20;0.20;;;9.40;99.90;;;;;;4963238;28;20186;-77
2022/04/13 05:57:54;;;;;;;0.20;0.20;;;9.50;99.90;;;;;;4947848;28;20185;-76
2022/04/13 06:00:19;;;;;;;0.20;0.20;;;9.50;99.90;;;;;;4955560;28;20460;-77
2022/04/13 06:02:45;;;;;;;0.30;0.30;;;9.50;99.90;;;;;;4957662;28;20229;-76
2022/04/13 06:05:11;;;;;;;0.23;0.23;;;9.50;99.90;;;;;;4973970;28;20224;-76
2022/04/13 06:07:36;;;;;;;0.30;0.30;;;9.50;99.90;;;;;;4971577;28;20189;-78
2022/04/13 06:10:04;;;;;;;0.20;0.20;;;9.50;99.90;;;;;;4970878;28;20182;-76
2022/04/13 06:12:29;;;;;;;0.20;0.20;;;9.50;99.90;;;;;;4967301;28;20261;-76
2022/04/13 06:15:15;;;;;;;0.20;0.20;;;9.60;99.90;;;;;;4965990;28;20552;-76
2022/04/13 06:17:41;;;;;;;0.20;0.20;;;9.70;99.90;;;;;;4966835;28;20206;-76
2022/04/13 06:20:08;;;;;;;0.30;0.30;;;9.70;99.90;;;;;;4971322;28;20967;-76
2022/04/13 06:22:39;;;;;;;0.30;0.30;;;9.70;99.90;;;;;;4961729;28;20243;-76
2022/04/13 06:25:05;;;;;;;0.20;0.20;;;9.70;99.90;;;;;;4992488;28;20479;-76
2022/04/13 06:27:31;;;;;;;0.30;0.30;;;9.70;99.90;;;;;;4988286;28;20587;-77
2022/04/13 06:29:56;;;;;;;0.20;0.20;;;9.80;99.90;;;;;;4986445;28;21026;-77
2022/04/13 06:32:30;;;;;;;0.20;0.20;;;9.80;99.90;;;;;;4971644;28;20185;-77
2022/04/13 06:34:58;;;;;;;0.20;0.20;;;9.80;99.90;;;;;;4991620;28;20192;-79
2022/04/13 06:37:24;;;;;;;0.20;0.20;;;9.80;99.90;;;;;;4973290;28;20997;-77
2022/04/13 06:39:49;;;;;;;0.20;0.20;;;9.90;99.90;;;;;;4971917;28;20444;-77
2022/04/13 06:42:15;;;;;;;0.30;0.30;;;10.00;99.90;;;;;;4987004;28;20326;-78
2022/04/13 06:44:40;;;;;;;0.20;0.20;;;10.00;99.90;;;;;;4990110;28;20747;-78
2022/04/13 06:47:06;;;;;;;0.20;0.20;;;10.00;99.90;;;;;;4994007;28;20294;-78
2022/04/13 06:49:31;;;;;;;0.20;0.20;;;10.00;99.90;;;;;;4985821;28;20198;-78
2022/04/13 06:51:57;;;;;;;0.20;0.20;;;10.10;99.90;;;;;;4984267;28;20182;-79
2022/04/13 06:54:23;;;;;;;0.30;0.30;;;10.10;99.90;;;;;;4988994;28;20204;-79
2022/04/13 06:56:48;;;;;;;0.20;0.20;;;10.20;99.90;;;;;;4977977;28;20198;-78
2022/04/13 06:59:13;;;;;;;0.20;0.20;;;10.30;99.90;;;;;;4989766;28;20203;-79
2022/04/13 07:01:39;;;;;;;0.20;0.20;;;10.40;99.90;;;;;;4987144;28;20193;-78
2022/04/13 07:04:05;;;;;;;0.20;0.20;;;10.40;99.90;;;;;;4992447;28;20227;-80
2022/04/13 07:06:30;;;;;;;0.20;0.20;;;10.50;99.90;;;;;;4987721;28;20199;-78
2022/04/13 07:08:56;;;;;;;0.20;0.20;;;10.60;99.90;;;;;;4989703;28;20231;-78
2022/04/13 07:11:21;;;;;;;0.20;0.20;;;10.70;99.90;;;;;;4971712;28;20190;-78
2022/04/13 07:13:47;;;;;;;0.20;0.20;;;10.80;99.90;;;;;;4991313;28;20263;-79
2022/04/13 07:16:12;;;;;;;0.20;0.20;;;10.90;99.90;;;;;;4994338;28;20924;-79
2022/04/13 07:18:38;;;;;;;0.20;0.20;;;11.10;99.90;;;;;;4988652;28;20215;-83
2022/04/13 07:21:04;;;;;;;0.20;0.20;;;11.20;99.90;;;;;;4983029;28;20247;-78
2022/04/13 07:23:30;;;;;;;0.20;0.20;;;11.30;99.90;;;;;;4988226;28;20231;-81
2022/04/13 07:25:56;;;;;;;0.20;0.20;;;11.40;99.90;;;;;;4971077;28;20607;-80
2022/04/13 07:28:21;;;;;;;0.20;0.20;;;11.50;99.90;;;;;;4992925;28;20181;-79
2022/04/13 07:30:49;;;;;;;0.20;0.20;;;11.50;99.90;;;;;;4987532;28;20636;-79
2022/04/13 07:33:15;;;;;;;0.20;0.20;;;11.50;99.90;;;;;;4971751;28;20276;-79
2022/04/13 07:35:40;;;;;;;0.20;0.20;;;11.50;99.90;;;;;;4990780;28;20526;-78
2022/04/13 07:38:06;;;;;;;0.20;0.20;;;11.50;99.90;;;;;;4992479;28;20197;-79
2022/04/13 07:40:31;;;;;;;0.20;0.20;;;11.60;99.90;;;;;;4989779;28;20738;-80
2022/04/13 07:42:57;;;;;;;0.20;0.20;;;11.60;99.90;;;;;;4988544;28;20190;-78
2022/04/13 07:45:22;;;;;;;0.20;0.20;;;11.60;99.90;;;;;;4972156;28;20708;-79
2022/04/13 07:47:48;;;;;;;0.20;0.20;;;11.60;99.90;;;;;;4988493;28;20189;-79
2022/04/13 07:50:14;;;;;;;0.20;0.20;;;11.70;99.90;;;;;;4989111;28;20203;-79
2022/04/13 07:52:41;;;;;;;0.20;0.20;;;11.70;99.90;;;;;;4973827;28;20189;-79
2022/04/13 07:55:09;;;;;;;0.20;0.20;;;11.70;99.90;;;;;;4990651;28;20564;-78
2022/04/13 07:57:37;;;;;;;0.20;0.20;;;11.90;99.90;;;;;;4979924;28;20452;-78
2022/04/13 08:00:07;;;;;;;0.20;0.20;;;11.90;99.90;;;;;;4988015;28;20480;-79
2022/04/13 08:02:36;;;;;;;0.20;0.20;;;12.00;99.90;;;;;;4991553;28;20437;-78
2022/04/13 08:05:03;;;;;;;0.20;0.20;;;12.00;99.90;;;;;;4970298;28;20558;-78
2022/04/13 08:07:29;;;;;;;0.20;0.20;;;12.10;99.90;;;;;;4987576;28;20449;-79
2022/04/13 08:09:55;;;;;;;0.20;0.20;;;12.20;99.90;;;;;;4983096;28;20513;-81
2022/04/13 08:12:20;;;;;;;0.20;0.20;;;12.30;99.90;;;;;;4966552;28;20188;-78
2022/04/13 08:14:46;;;;;;;0.20;0.20;;;12.40;99.90;;;;;;4975532;28;20818;-78
2022/04/13 08:17:15;;;;;;;0.20;0.20;;;12.40;99.90;;;;;;4986609;28;20288;-80
2022/04/13 08:19:40;;;;;;;0.20;0.20;;;12.40;99.90;;;;;;4983195;28;20426;-78
2022/04/13 08:22:06;;;;;;;0.10;0.10;;;12.60;99.90;;;;;;4981981;28;20976;-78
2022/04/13 08:24:32;;;;;;;0.20;0.20;;;12.70;99.90;;;;;;4982464;28;20499;-79
2022/04/13 08:26:59;;;;;;;0.20;0.20;;;12.80;99.90;;;;;;4982534;28;20268;-78
2022/04/13 08:29:25;;;;;;;0.17;0.17;;;12.90;99.90;;;;;;4984466;28;20625;-79
2022/04/13 08:31:50;;;;;;;0.10;0.10;;;13.10;99.90;;;;;;4988790;28;20826;-80
2022/04/13 08:34:16;;;;;;;0.10;0.10;;;13.30;99.90;;;;;;4970561;28;20448;-78
2022/04/13 08:36:41;;;;;;;0.10;0.10;;;13.60;99.90;;;;;;4967913;28;20193;-81
2022/04/13 08:39:13;;;;;;;0.10;0.10;;;13.80;99.90;;;;;;4990613;28;20189;-81
2022/04/13 08:41:44;;;;;;;0.10;0.10;;;13.70;99.90;;;;;;5001643;28;20222;-78
2022/04/13 08:44:22;;;;;;;0.10;0.10;;;13.90;99.90;;;;;;4986787;28;21135;-79
2022/04/13 08:46:50;;;;;;;0.10;0.10;;;14.00;99.90;;;;;;4989956;28;20501;-78
2022/04/13 08:49:17;;;;;;;0.10;0.10;;;14.20;99.90;;;;;;4965228;28;20466;-80
2022/04/13 08:51:43;;;;;;;0.10;0.10;;;14.50;99.90;;;;;;4963148;28;20449;-79
2022/04/13 08:54:21;;;;;;;0.10;0.10;;;14.70;99.90;;;;;;4983459;28;20452;-81
2022/04/13 08:56:49;;;;;;;0.10;0.10;;;14.90;99.90;;;;;;4969695;28;20190;-81
2022/04/13 08:59:38;;;;;;;0.10;0.10;;;15.00;99.90;;;;;;4986489;28;20506;-80
2022/04/13 09:02:34;;;;;;;0.10;0.10;;;15.00;99.90;;;;;;4983690;28;20586;-81
2022/04/13 09:05:01;;;;;;;0.10;0.10;;;15.20;99.90;;;;;;4971061;28;20487;-81
2022/04/13 09:07:34;;;;;;;0.10;0.10;;;15.40;99.90;;;;;;4987749;28;20511;-81
2022/04/13 09:10:02;;;;;;;0.10;0.10;;;15.10;99.90;;;;;;4983741;28;20439;-79
2022/04/13 09:12:30;;;;;;;0.10;0.10;;;15.20;99.90;;;;;;5000194;28;20474;-81
2022/04/13 09:14:57;;;;;;;0.10;0.10;;;15.30;99.90;;;;;;4989088;28;20437;-78
2022/04/13 09:17:27;;;;;;;0.10;0.10;;;15.20;99.90;;;;;;4983706;28;20440;-79
2022/04/13 09:19:55;;;;;;;0.10;0.10;;;15.20;99.90;;;;;;5002770;28;20448;-82
2022/04/13 09:22:22;;;;;;;0.10;0.10;;;15.50;99.90;;;;;;4979931;28;20483;-81
2022/04/13 09:24:48;;;;;;;0.10;0.10;;;16.00;99.90;;;;;;4988796;28;20990;-81
2022/04/13 09:27:14;;;;;;;0.10;0.10;;;15.80;99.90;;;;;;4981412;28;20451;-80
2022/04/13 09:29:40;;;;;;;0.10;0.10;;;16.30;99.90;;;;;;4966003;28;20195;-81
2022/04/13 09:32:07;;;;;;;0.10;0.10;;;16.20;99.90;;;;;;4960465;28;20455;-80
2022/04/13 09:34:32;;;;;;;0.10;0.10;;;16.30;99.90;;;;;;5011018;28;20192;-80
2022/04/13 09:37:00;;;;;;;0.10;0.10;;;16.50;99.90;;;;;;4983922;28;20574;-81
2022/04/13 09:39:26;;;;;;;0.10;0.10;;;17.00;99.90;;;;;;4987061;28;20188;-81
2022/04/13 09:41:52;;;;;;;0.10;0.10;;;16.90;99.90;;;;;;5001195;28;20506;-81
2022/04/13 09:44:20;;;;;;;0.10;0.10;;;16.60;99.90;;;;;;4998417;28;20554;-81
2022/04/13 09:46:46;;;;;;;0.10;0.10;;;16.60;99.90;;;;;;4987951;28;20193;-81
2022/04/13 09:49:15;;;;;;;0.10;0.10;;;16.80;99.90;;;;;;4991016;28;20454;-82
2022/04/13 09:51:46;;;;;;;0.10;0.10;;;17.00;99.90;;;;;;4985248;28;20695;-81
2022/04/13 09:54:12;;;;;;;0.10;0.10;;;17.00;99.90;;;;;;4986507;28;20463;-81
2022/04/13 09:56:47;;;;;;;0.10;0.10;;;17.40;99.90;;;;;;4984798;28;20551;-81
2022/04/13 09:59:24;;;;;;;0.10;0.10;;;17.60;99.50;;;;;;4974941;28;21001;-81
2022/04/13 10:01:50;;;;;;;0.10;0.10;;;17.90;99.90;;;;;;4982241;28;20455;-81
2022/04/13 10:04:27;;;;;;;0.10;0.10;;;17.80;99.90;;;;;;5002067;28;20614;-81
2022/04/13 10:06:52;;;;;;;0.10;0.10;;;17.90;99.90;;;;;;4993226;28;20228;-80
2022/04/13 10:09:19;;;;;;;0.10;0.10;;;17.80;99.90;;;;;;4993842;28;20464;-80
2022/04/13 10:12:03;;;;;;;0.10;0.10;;;18.00;99.90;;;;;;4984246;28;20181;-81
2022/04/13 10:14:29;;;;;;;0.10;0.10;;;18.40;99.90;;;;;;4987638;28;20479;-81
2022/04/13 10:16:57;;;;;;;0.00;0.00;;;18.70;99.90;;;;;;4987710;28;20527;-81
2022/04/13 10:19:23;;;;;;;0.10;0.10;;;18.60;99.50;;;;;;4984708;28;20475;-81
2022/04/13 10:21:52;;;;;;;0.03;0.03;;;18.80;99.60;;;;;;4986999;28;20522;-80
2022/04/13 10:24:25;;;;;;;0.00;0.00;;;19.00;99.90;;;;;;4988767;28;20217;-81
2022/04/13 10:27:07;;;;;;;0.10;0.10;;;18.90;99.90;;;;;;4983705;28;20509;-81
2022/04/13 10:29:35;;;;;;;0.00;0.00;;;18.50;99.80;;;;;;4972867;28;20880;-80
2022/04/13 10:32:03;;;;;;;0.00;0.00;;;18.70;99.90;;;;;;4987407;28;20513;-81
2022/04/13 10:34:29;;;;;;;0.00;0.00;;;18.70;99.90;;;;;;4982849;28;20452;-80
2022/04/13 10:36:55;;;;;;;0.00;0.00;;;18.50;99.90;;;;;;4972176;28;20536;-81
2022/04/13 10:39:21;;;;;;;0.10;0.10;;;18.40;99.90;;;;;;4987327;28;20549;-80
2022/04/13 10:41:48;;;;;;;0.00;0.00;;;18.40;99.90;;;;;;4970071;28;20197;-81
2022/04/13 10:44:18;;;;;;;0.10;0.10;;;18.30;99.90;;;;;;5001019;28;21002;-80
2022/04/13 10:46:48;;;;;;;0.00;0.00;;;18.30;99.90;;;;;;4989359;28;20480;-80
2022/04/13 10:49:20;;;;;;;0.00;0.00;;;18.50;99.90;;;;;;4977665;28;20491;-80
2022/04/13 10:51:52;;;;;;;0.00;0.00;;;18.30;99.90;;;;;;4983806;28;20452;-80
2022/04/13 10:54:21;;;;;;;0.00;0.00;;;18.60;99.90;;;;;;4990168;28;20456;-80
2022/04/13 10:56:50;;;;;;;0.03;0.03;;;18.80;99.90;;;;;;4987985;28;20660;-80
2022/04/13 10:59:22;;;;;;;0.00;0.00;;;19.20;99.90;;;;;;4990084;28;20498;-80
2022/04/13 11:01:57;;;;;;;0.00;0.00;;;19.50;99.90;;;;;;4970831;28;20510;-80
2022/04/13 11:04:24;;;;;;;0.00;0.00;;;19.20;99.90;;;;;;4999161;28;20491;-80
2022/04/13 11:06:50;;;;;;;0.00;0.00;;;19.40;99.90;;;;;;4992191;28;20988;-80
2022/04/13 11:09:32;;;;;;;0.00;0.00;;;19.80;99.90;;;;;;4989300;28;20872;-80
2022/04/13 11:12:01;;;;;;;0.00;0.00;;;20.30;99.20;;;;;;4990933;28;20447;-80
2022/04/13 11:14:27;;;;;;;0.00;0.00;;;20.80;99.90;;;;;;4992332;28;20436;-80
2022/04/13 11:17:05;;;;;;;0.00;0.00;;;21.10;99.90;;;;;;4985703;28;20974;-81
2022/04/13 11:19:30;;;;;;;0.00;0.00;;;21.60;99.90;;;;;;4990122;28;21074;-81
2022/04/13 11:21:59;;;;;;;0.00;0.00;;;21.80;98.30;;;;;;4995693;28;20487;-80
2022/04/13 11:24:35;;;;;;;0.00;0.00;;;22.50;98.80;;;;;;4991534;28;20229;-80
2022/04/13 11:27:01;;;;;;;0.00;0.00;;;22.80;98.60;;;;;;4986947;28;20448;-81
2022/04/13 11:29:35;;;;;;;0.00;0.00;;;22.90;97.60;;;;;;4991986;28;20458;-81
2022/04/13 11:32:01;;;;;;;0.00;0.00;;;22.10;98.00;;;;;;4986252;28;20451;-81
2022/04/13 11:34:44;;;;;;;0.00;0.00;;;22.40;98.90;;;;;;4996054;28;20599;-81
2022/04/13 11:37:15;;;;;;;0.00;0.00;;;22.60;99.40;;;;;;4992278;28;20663;-80
2022/04/13 11:39:50;;;;;;;0.00;0.00;;;22.90;98.50;;;;;;4982678;28;20436;-81
2022/04/13 11:42:19;;;;;;;0.00;0.00;;;23.10;99.90;;;;;;4987634;28;20826;-82
2022/04/13 11:45:11;;;;;;;0.00;0.00;;;22.90;98.20;;;;;;4990501;28;20524;-81
2022/04/13 11:47:43;;;;;;;0.00;0.00;;;23.10;98.70;;;;;;4997875;28;20473;-81
2022/04/13 11:50:18;;;;;;;0.00;0.00;;;23.00;99.90;;;;;;5000420;28;20454;-81
2022/04/13 11:52:48;;;;;;;0.00;0.00;;;23.30;97.60;;;;;;4990565;28;20442;-82
2022/04/13 11:55:22;;;;;;;0.00;0.00;;;23.00;98.40;;;;;;4988536;28;20452;-81
2022/04/13 11:58:09;;;;;;;0.00;0.00;;;23.60;99.60;;;;;;4991360;28;20447;-82
2022/04/13 12:00:39;;;;;;;0.00;0.00;;;23.70;97.80;;;;;;4990685;28;20435;-82
2022/04/13 12:03:07;;;;;;;0.00;0.00;;;23.70;99.10;;;;;;4987209;28;20448;-82
2022/04/13 12:05:35;;;;;;;0.00;0.00;;;23.70;99.30;;;;;;5005480;28;20875;-83
2022/04/13 12:08:00;;;;;;;0.00;0.00;;;24.20;98.70;;;;;;4994074;28;20788;-82
2022/04/13 12:10:34;;;;;;;0.00;0.00;;;23.90;99.40;;;;;;5006493;28;20443;-82
2022/04/13 12:13:03;;;;;;;0.00;0.00;;;23.70;99.50;;;;;;4987581;28;20235;-81
2022/04/13 12:15:44;;;;;;;0.00;0.00;;;23.60;99.90;;;;;;4986624;28;20496;-80
2022/04/13 12:18:12;;;;;;;0.00;0.00;;;23.60;98.90;;;;;;4988702;28;20439;-81
2022/04/13 12:20:37;;;;;;;0.00;0.00;;;24.50;98.00;;;;;;4984740;28;20448;-81
2022/04/13 12:23:19;;;;;;;0.00;0.00;;;24.70;98.10;;;;;;4990064;28;21055;-80
2022/04/13 12:25:47;;;;;;;0.00;0.00;;;24.50;99.70;;;;;;4986156;28;20593;-81
2022/04/13 12:28:13;;;;;;;0.00;0.00;;;25.00;98.00;;;;;;4987452;28;20451;-81
2022/04/13 12:30:39;;;;;;;0.00;0.00;;;24.80;97.50;;;;;;4989702;28;20530;-81
2022/04/13 12:33:13;;;;;;;0.00;0.00;;;25.00;97.80;;;;;;4990026;28;20455;-81
2022/04/13 12:35:50;;;;;;;0.00;0.00;;;24.40;98.60;;;;;;4987372;28;20960;-81
2022/04/13 12:38:23;;;;;;;0.00;0.00;;;24.40;98.90;;;;;;4989883;28;20497;-81
2022/04/13 12:40:49;;;;;;;0.00;0.00;;;24.70;98.70;;;;;;4970565;28;20456;-80
2022/04/13 12:43:26;;;;;;;0.00;0.00;;;24.00;99.50;;;;;;4996377;28;20440;-81
2022/04/13 12:45:51;;;;;;;0.00;0.00;;;23.90;99.00;;;;;;4986538;28;20328;-81
2022/04/13 12:48:17;;;;;;;0.00;0.00;;;23.90;99.40;;;;;;4989937;28;20493;-80
2022/04/13 12:50:59;;;;;;;0.00;0.00;;;23.10;99.70;;;;;;4988150;28;20724;-80
2022/04/13 12:53:26;;;;;;;0.00;0.00;;;22.80;99.90;;;;;;4992635;28;20945;-80
2022/04/13 12:55:53;;;;;;;0.00;0.00;;;22.60;99.90;;;;;;4982291;28;20453;-81
2022/04/13 12:58:18;;;;;;;0.00;0.00;;;22.10;99.90;;;;;;4994091;28;20452;-81
2022/04/13 13:00:51;;;;;;;0.00;0.00;;;22.20;99.90;;;;;;4973606;28;20456;-80
2022/04/13 13:03:18;;;;;;;0.00;0.00;;;22.30;99.90;;;;;;4995389;28;20184;-80
2022/04/13 13:05:44;;;;;;;0.00;0.00;;;22.10;99.90;;;;;;4989958;28;20488;-80
2022/04/13 13:08:10;;;;;;;0.00;0.00;;;21.90;99.90;;;;;;4977692;28;20451;-79
2022/04/13 13:10:36;;;;;;;0.00;0.00;;;21.90;99.90;;;;;;4994533;28;20587;-80
2022/04/13 13:13:12;;;;;;;0.00;0.00;;;22.30;99.90;;;;;;4986875;28;20174;-80
2022/04/13 13:15:39;;;;;;;0.00;0.00;;;22.70;99.90;;;;;;4987372;28;20458;-80
2022/04/13 13:18:09;;;;;;;0.00;0.00;;;23.00;99.90;;;;;;4960790;28;20445;-80
2022/04/13 13:20:51;;;;;;;0.00;0.00;;;23.30;99.90;;;;;;4971633;28;20445;-80
2022/04/13 13:23:28;;;;;;;0.00;0.00;;;23.10;99.90;;;;;;4971493;28;20510;-80
2022/04/13 13:25:55;;;;;;;0.00;0.00;;;23.80;99.90;;;;;;4984405;28;20459;-80
2022/04/13 13:28:28;;;;;;;0.00;0.00;;;23.00;99.90;;;;;;5001409;28;20510;-80
2022/04/13 13:30:55;;;;;;;0.00;0.00;;;23.20;99.90;;;;;;5000839;28;20452;-80
2022/04/13 13:33:22;;;;;;;0.00;0.00;;;22.50;99.90;;;;;;4989354;28;20447;-80
2022/04/13 13:35:47;;;;;;;0.00;0.00;;;22.90;99.90;;;;;;4989540;28;20448;-80
2022/04/13 13:38:19;;;;;;;0.00;0.00;;;22.80;99.90;;;;;;4988687;28;20599;-80
2022/04/13 13:40:47;;;;;;;0.00;0.00;;;22.90;99.90;;;;;;4971516;28;20660;-80
2022/04/13 13:43:16;;;;;;;0.00;0.00;;;22.90;99.90;;;;;;4990219;28;20436;-80
2022/04/13 13:45:52;;;;;;;0.00;0.00;;;22.80;99.90;;;;;;4988094;28;20452;-79
2022/04/13 13:48:25;;;;;;;0.00;0.00;;;22.80;99.90;;;;;;4990905;28;20420;-80
2022/04/13 13:50:53;;;;;;;0.00;0.00;;;22.60;99.90;;;;;;4990573;28;20953;-80
2022/04/13 13:53:23;;;;;;;0.00;0.00;;;22.80;99.90;;;;;;4990931;28;20416;-80
2022/04/13 13:55:50;;;;;;;0.00;0.00;;;22.60;99.90;;;;;;4987658;28;20867;-80
2022/04/13 13:58:16;;;;;;;0.00;0.00;;;22.60;99.90;;;;;;4987935;28;20454;-80
2022/04/13 14:00:42;;;;;;;0.00;0.00;;;23.20;99.90;;;;;;4984638;28;20429;-80
2022/04/13 14:03:09;;;;;;;0.00;0.00;;;23.60;99.90;;;;;;4986838;28;20468;-80
2022/04/13 14:05:35;;;;;;;0.00;0.00;;;24.60;99.90;;;;;;4981986;28;20243;-80
2022/04/13 14:08:04;;;;;;;0.00;0.00;;;24.60;99.90;;;;;;4989151;28;20452;-80
2022/04/13 14:10:30;;;;;;;0.00;0.00;;;24.70;99.90;;;;;;4981375;28;20454;-80
2022/04/13 14:12:56;;;;;;;0.00;0.00;;;23.80;99.90;;;;;;4986093;28;20451;-80
2022/04/13 14:15:22;;;;;;;0.00;0.00;;;23.70;99.90;;;;;;4981259;28;20445;-80
2022/04/13 14:17:53;;;;;;;0.00;0.00;;;23.40;99.90;;;;;;4990241;28;21282;-80
2022/04/13 14:20:20;;;;;;;0.00;0.00;;;22.30;99.90;;;;;;4978654;28;20512;-80
2022/04/13 14:22:52;;;;;;;0.00;0.00;;;22.60;99.90;;;;;;4986432;28;20532;-80
2022/04/13 14:25:19;;;;;;;0.00;0.00;;;22.30;99.90;;;;;;4981181;28;20591;-80
2022/04/13 14:27:45;;;;;;;0.00;0.00;;;21.80;99.90;;;;;;4986576;28;20440;-80
2022/04/13 14:30:12;;;;;;;0.00;0.00;;;21.20;99.90;;;;;;4987376;28;20610;-81
2022/04/13 14:32:41;;;;;;;0.00;0.00;;;21.30;99.90;;;;;;4984796;28;20451;-81
2022/04/13 14:35:07;;;;;;;0.00;0.00;;;21.10;99.90;;;;;;4990070;28;20522;-80
2022/04/13 14:37:37;;;;;;;0.00;0.00;;;20.80;99.90;;;;;;4988458;28;20440;-80
2022/04/13 14:40:05;;;;;;;0.00;0.00;;;21.30;99.90;;;;;;4994018;28;20432;-80
2022/04/13 14:42:31;;;;;;;0.00;0.00;;;21.40;99.90;;;;;;4979128;28;20442;-80
2022/04/13 14:44:56;;;;;;;0.07;0.07;;;21.20;99.90;;;;;;4988168;28;20491;-80
2022/04/13 14:47:22;;;;;;;0.00;0.00;;;21.20;99.90;;;;;;4989787;28;20966;-80
2022/04/13 14:49:48;;;;;;;0.00;0.00;;;20.90;99.90;;;;;;4997437;28;20200;-80
2022/04/13 14:52:13;;;;;;;0.00;0.00;;;20.60;99.90;;;;;;4988044;28;20198;-79
2022/04/13 14:54:39;;;;;;;0.10;0.10;;;20.40;99.90;;;;;;4986836;28;20197;-80
2022/04/13 14:57:06;;;;;;;0.00;0.00;;;20.40;99.90;;;;;;4983165;28;20300;-80
2022/04/13 14:59:32;;;;;;;0.00;0.00;;;20.10;99.90;;;;;;4983712;28;20472;-80
2022/04/13 15:01:57;;;;;;;0.00;0.00;;;19.90;99.90;;;;;;4984800;28;20875;-80
2022/04/13 15:04:23;;;;;;;0.10;0.10;;;19.90;99.90;;;;;;4983901;28;20255;-80
2022/04/13 15:06:52;;;;;;;0.10;0.10;;;19.70;99.90;;;;;;4984823;28;20228;-80
2022/04/13 15:09:17;;;;;;;0.07;0.07;;;19.60;99.90;;;;;;4988834;28;20185;-80
2022/04/13 15:11:43;;;;;;;0.00;0.00;;;19.60;99.90;;;;;;4971759;28;20502;-81
2022/04/13 15:14:11;;;;;;;0.10;0.10;;;19.70;99.90;;;;;;4983420;28;20189;-81
2022/04/13 15:16:39;;;;;;;0.00;0.00;;;20.10;99.90;;;;;;4984791;28;20224;-80
2022/04/13 15:19:05;;;;;;;0.00;0.00;;;20.10;99.90;;;;;;4987051;28;20452;-81
2022/04/13 15:21:31;;;;;;;0.00;0.00;;;20.00;99.90;;;;;;4987024;28;20471;-81
2022/04/13 15:23:57;;;;;;;0.10;0.10;;;19.70;99.90;;;;;;4990481;28;20255;-80
2022/04/13 15:26:23;;;;;;;0.00;0.00;;;19.30;99.90;;;;;;4994961;28;20534;-80
2022/04/13 15:28:48;;;;;;;0.10;0.10;;;19.10;99.90;;;;;;4990653;28;20880;-80
2022/04/13 15:31:14;;;;;;;0.10;0.10;;;18.90;99.90;;;;;;4990760;28;20184;-80
2022/04/13 15:33:39;;;;;;;0.10;0.10;;;18.80;99.90;;;;;;4989770;28;20716;-81
2022/04/13 15:36:05;;;;;;;0.10;0.10;;;18.90;99.90;;;;;;4983578;28;20720;-80
2022/04/13 15:38:30;;;;;;;0.10;0.10;;;19.00;99.90;;;;;;4984757;28;20625;-80
2022/04/13 15:40:58;;;;;;;0.10;0.10;;;18.70;99.90;;;;;;4987809;28;20688;-81
2022/04/13 15:43:23;;;;;;;0.10;0.10;;;18.80;99.90;;;;;;4988847;28;20220;-80
2022/04/13 15:45:51;;;;;;;0.10;0.10;;;18.70;99.90;;;;;;4988766;28;20533;-80
2022/04/13 15:48:17;;;;;;;0.10;0.10;;;18.50;99.90;;;;;;4996389;28;20200;-80
2022/04/13 15:50:45;;;;;;;0.10;0.10;;;18.40;99.90;;;;;;4990913;28;20482;-80
2022/04/13 15:53:12;;;;;;;0.10;0.10;;;18.30;99.90;;;;;;4966836;28;20445;-80
2022/04/13 15:55:37;;;;;;;0.10;0.10;;;18.50;99.90;;;;;;4990871;28;21038;-80
2022/04/13 15:58:03;;;;;;;0.10;0.10;;;18.50;99.90;;;;;;4989890;28;20444;-80
2022/04/13 16:00:30;;;;;;;0.10;0.10;;;18.70;99.90;;;;;;4989700;28;20193;-80
2022/04/13 16:02:57;;;;;;;0.10;0.10;;;18.80;99.90;;;;;;4990777;28;20248;-80
2022/04/13 16:05:23;;;;;;;0.10;0.10;;;18.90;99.90;;;;;;4989298;28;20487;-80
2022/04/13 16:07:50;;;;;;;0.10;0.00;;;18.90;99.90;;;;;;4986975;28;21100;-80
2022/04/13 16:10:20;;;;;;;0.10;0.10;;;19.00;99.90;;;;;;4985729;28;20564;-80
2022/04/13 16:12:47;;;;;;;0.10;0.10;;;18.30;99.90;;;;;;4988916;28;20432;-80
2022/04/13 16:15:13;;;;;;;0.10;0.10;;;18.30;99.90;;;;;;4972424;28;20798;-81
2022/04/13 16:17:39;;;;;;;0.10;0.10;;;18.30;99.90;;;;;;4987586;28;20498;-81
2022/04/13 16:20:06;;;;;;;0.10;0.10;;;18.50;99.90;;;;;;4985974;28;20452;-81
2022/04/13 16:22:32;;;;;;;0.10;0.10;;;18.40;99.90;;;;;;4985826;28;20483;-80
2022/04/13 16:24:57;;;;;;;0.10;0.10;;;18.40;99.90;;;;;;4984330;28;20487;-81
2022/04/13 16:27:23;;;;;;;0.10;0.10;;;18.40;99.90;;;;;;4984085;28;20795;-81
2022/04/13 16:29:49;;;;;;;0.10;0.10;;;18.50;99.90;;;;;;4956802;28;20204;-81
2022/04/13 16:32:15;;;;;;;0.10;0.10;;;18.40;99.90;;;;;;4965117;28;20610;-81
2022/04/13 16:34:41;;;;;;;0.10;0.10;;;18.30;99.90;;;;;;4981866;28;20456;-81
2022/04/13 16:37:07;;;;;;;0.10;0.10;;;18.20;99.90;;;;;;4999080;28;20188;-81
2022/04/13 16:39:33;;;;;;;0.10;0.10;;;18.20;99.90;;;;;;4980386;28;20501;-81
2022/04/13 16:41:58;;;;;;;0.10;0.10;;;17.90;99.90;;;;;;4992722;28;20872;-81
2022/04/13 16:44:27;;;;;;;0.10;0.10;;;17.90;99.90;;;;;;4988315;28;20348;-81
2022/04/13 16:46:54;;;;;;;0.10;0.10;;;18.00;99.90;;;;;;4967053;28;20185;-81
2022/04/13 16:49:20;;;;;;;0.10;0.10;;;18.10;99.90;;;;;;5000453;28;20452;-81
2022/04/13 16:51:49;;;;;;;0.10;0.10;;;18.00;99.90;;;;;;4988682;28;20470;-80
2022/04/13 16:54:16;;;;;;;0.10;0.10;;;17.90;99.90;;;;;;4990035;28;20185;-80
2022/04/13 16:56:41;;;;;;;0.10;0.10;;;17.60;99.90;;;;;;4990445;28;20926;-81
2022/04/13 16:59:07;;;;;;;0.10;0.10;;;17.70;99.90;;;;;;4990276;28;20452;-80
2022/04/13 17:01:33;;;;;;;0.10;0.10;;;17.60;99.90;;;;;;4987848;28;20664;-80
2022/04/13 17:03:59;;;;;;;0.10;0.10;;;17.30;99.90;;;;;;5004986;28;20213;-81
2022/04/13 17:06:25;;;;;;;0.10;0.10;;;17.50;99.90;;;;;;4986220;28;20466;-81
2022/04/13 17:08:50;;;;;;;0.10;0.10;;;17.30;99.90;;;;;;4986683;28;20317;-80
2022/04/13 17:11:17;;;;;;;0.10;0.10;;;17.30;99.90;;;;;;4984523;28;20224;-79
2022/04/13 17:13:43;;;;;;;0.10;0.10;;;17.30;99.90;;;;;;4987608;28;20193;-80
2022/04/13 17:16:13;;;;;;;0.10;0.10;;;17.30;99.90;;;;;;4986561;28;20802;-80
2022/04/13 17:18:39;;;;;;;0.10;0.10;;;17.20;99.90;;;;;;4973625;28;20442;-80
2022/04/13 17:21:06;;;;;;;0.10;0.10;;;17.00;99.90;;;;;;4996107;28;20901;-81
2022/04/13 17:23:32;;;;;;;0.10;0.10;;;16.90;99.90;;;;;;4987433;28;20507;-81
2022/04/13 17:26:01;;;;;;;0.10;0.10;;;16.80;99.90;;;;;;4970200;28;20817;-80
2022/04/13 17:28:27;;;;;;;0.10;0.10;;;16.90;99.90;;;;;;4988037;28;20448;-80
2022/04/13 17:30:53;;;;;;;0.10;0.10;;;16.90;99.90;;;;;;4982638;28;20546;-80
2022/04/13 17:33:21;;;;;;;0.10;0.10;;;16.70;99.90;;;;;;4985021;28;20538;-80
2022/04/13 17:35:48;;;;;;;0.10;0.10;;;16.80;99.90;;;;;;4985165;28;20202;-80
2022/04/13 17:38:14;;;;;;;0.10;0.10;;;16.70;99.90;;;;;;4971723;28;20776;-80
2022/04/13 17:40:40;;;;;;;0.10;0.10;;;16.60;99.90;;;;;;4984661;28;20462;-80
2022/04/13 17:43:06;;;;;;;0.10;0.10;;;16.50;99.90;;;;;;4998258;28;20445;-81
2022/04/13 17:45:32;;;;;;;0.10;0.10;;;16.40;99.90;;;;;;4970003;28;20538;-81
2022/04/13 17:47:58;;;;;;;0.10;0.10;;;16.40;99.90;;;;;;4972408;28;20440;-80
2022/04/13 17:50:24;;;;;;;0.10;0.10;;;16.20;99.90;;;;;;4972218;28;20459;-80
2022/04/13 17:52:49;;;;;;;0.10;0.10;;;16.10;99.90;;;;;;4982131;28;20564;-81
2022/04/13 17:55:15;;;;;;;0.10;0.10;;;16.10;99.90;;;;;;4985177;28;20193;-80
2022/04/13 17:57:41;;;;;;;0.10;0.10;;;16.00;99.90;;;;;;4990817;28;20232;-79
2022/04/13 18:00:09;;;;;;;0.10;0.10;;;15.80;99.90;;;;;;4968898;28;20200;-80
2022/04/13 18:02:35;;;;;;;0.10;0.10;;;15.80;99.90;;;;;;4985015;28;20192;-81
2022/04/13 18:05:01;;;;;;;0.10;0.10;;;15.70;99.90;;;;;;4972750;28;20499;-81
2022/04/13 18:07:27;;;;;;;0.10;0.10;;;15.70;99.90;;;;;;4968373;28;20981;-80
2022/04/13 18:09:55;;;;;;;0.10;0.10;;;15.70;99.90;;;;;;4990004;28;20459;-81
2022/04/13 18:12:21;;;;;;;0.10;0.10;;;15.70;99.90;;;;;;4971815;28;20328;-82